Time;durP1;ratioP1;P1;durP2;ratioP2;P2;SDS_P1;SDS_P2;PMS_P1;PMS_P2;Temp;Humidity;BMP_temperature;BMP_pressure;BME280_temperature;BME280_humidity;BME280_pressure;Samples;Min_cycle;Max_cycle;Signal;HPM_P1;HPM_P2
2023/01/11 00:00:40;;;;;;;2.10;1.30;;;6.80;99.90;;;;;;5110006;27;20456;-75
2023/01/11 00:03:08;;;;;;;4.40;1.10;;;6.80;79.60;;;;;;5116795;27;20492;-74
2023/01/11 00:05:42;;;;;;;1.10;1.10;;;6.80;99.90;;;;;;5115641;27;20469;-74
2023/01/11 00:08:11;;;;;;;1.50;1.10;;;6.80;51.10;;;;;;5111396;27;20466;-73
2023/01/11 00:10:40;;;;;;;1.63;1.20;;;6.80;51.40;;;;;;5084595;28;20813;-74
2023/01/11 00:13:08;;;;;;;2.00;1.50;;;6.80;90.30;;;;;;5105498;27;20536;-74
2023/01/11 00:15:37;;;;;;;1.83;1.03;;;6.80;99.90;;;;;;5105616;27;20443;-76
2023/01/11 00:18:05;;;;;;;2.10;1.20;;;6.90;99.90;;;;;;5106151;27;20512;-77
2023/01/11 00:20:33;;;;;;;1.83;1.10;;;6.80;99.90;;;;;;5111990;27;21024;-76
2023/01/11 00:23:03;;;;;;;1.10;1.00;;;7.00;99.90;;;;;;5109362;27;21024;-76
2023/01/11 00:25:31;;;;;;;1.30;1.20;;;7.00;99.90;;;;;;5108649;27;20450;-74
2023/01/11 00:27:59;;;;;;;1.10;1.10;;;7.00;99.90;;;;;;5114354;27;20466;-76
2023/01/11 00:30:27;;;;;;;1.40;1.03;;;7.10;99.90;;;;;;5108886;27;20541;-74
2023/01/11 00:32:56;;;;;;;1.73;1.20;;;7.10;99.90;;;;;;5112200;27;20533;-77
2023/01/11 00:35:25;;;;;;;1.00;1.00;;;7.00;99.90;;;;;;5112574;27;20462;-77
2023/01/11 00:37:53;;;;;;;3.20;1.10;;;7.00;1.00;;;;;;5107165;27;20484;-74
2023/01/11 00:40:25;;;;;;;2.23;1.10;;;7.10;99.90;;;;;;5112420;27;20457;-74
2023/01/11 00:48:25;;;;;;;3.23;1.20;;;7.10;99.90;;;;;;5117325;27;21018;-76
2023/01/11 00:50:56;;;;;;;2.00;1.30;;;7.10;1.00;;;;;;5105591;27;20574;-75
2023/01/11 00:53:24;;;;;;;1.57;1.10;;;7.10;1.00;;;;;;5114217;27;20544;-75
2023/01/11 00:55:54;;;;;;;1.20;1.10;;;7.00;1.00;;;;;;5110087;27;21295;-79
2023/01/11 00:58:22;;;;;;;1.67;1.17;;;7.00;1.00;;;;;;5113684;27;20468;-75
2023/01/11 01:00:50;;;;;;;1.43;1.00;;;7.00;1.00;;;;;;5113942;27;20945;-74
2023/01/11 01:03:18;;;;;;;2.57;1.20;;;7.10;1.00;;;;;;5112700;27;21185;-74
2023/01/11 01:05:47;;;;;;;2.70;1.53;;;7.00;1.00;;;;;;5113768;27;20475;-74
2023/01/11 01:08:15;;;;;;;1.27;1.17;;;7.00;88.60;;;;;;5098817;27;20496;-74
2023/01/11 01:10:43;;;;;;;1.17;1.10;;;7.10;99.90;;;;;;5111433;27;20468;-76
2023/01/11 01:15:58;;;;;;;1.80;1.70;;;7.00;99.90;;;;;;5108561;27;20451;-74
2023/01/11 01:18:26;;;;;;;1.40;1.30;;;7.00;99.90;;;;;;5113947;27;20476;-75
2023/01/11 01:20:54;;;;;;;2.63;1.50;;;7.00;99.90;;;;;;5116117;27;20459;-75
2023/01/11 01:23:23;;;;;;;1.00;1.00;;;7.00;99.90;;;;;;5110207;27;20461;-74
2023/01/11 01:25:51;;;;;;;1.10;1.10;;;7.10;1.00;;;;;;5113886;27;21125;-75
2023/01/11 01:28:20;;;;;;;1.60;1.50;;;7.10;1.00;;;;;;5114755;27;20471;-76
2023/01/11 01:30:52;;;;;;;1.30;1.20;;;7.10;1.00;;;;;;5115842;27;20459;-76
2023/01/11 01:33:20;;;;;;;1.10;1.10;;;7.10;1.00;;;;;;5118870;27;20449;-74
2023/01/11 01:35:48;;;;;;;1.50;1.40;;;7.20;1.00;;;;;;5108044;27;20472;-73
2023/01/11 01:38:16;;;;;;;1.40;1.30;;;7.20;1.00;;;;;;5113446;27;20511;-75
2023/01/11 01:40:47;;;;;;;1.20;1.20;;;7.20;1.00;;;;;;5108931;27;20483;-76
2023/01/11 01:43:17;;;;;;;1.10;1.10;;;7.20;1.00;;;;;;5113619;27;20739;-74
2023/01/11 01:45:48;;;;;;;1.43;1.33;;;7.20;99.90;;;;;;5106700;27;20481;-78
2023/01/11 01:48:21;;;;;;;1.00;1.00;;;7.10;94.80;;;;;;5114311;28;20561;-76
2023/01/11 01:50:53;;;;;;;1.90;1.10;;;7.10;35.20;;;;;;5080995;28;20450;-75
2023/01/11 01:53:25;;;;;;;1.30;1.30;;;7.00;1.00;;;;;;5112135;28;20531;-74
2023/01/11 01:55:57;;;;;;;1.37;1.23;;;6.90;6.60;;;;;;5088029;28;20575;-75
2023/01/11 01:58:28;;;;;;;1.50;1.40;;;7.10;54.90;;;;;;5111209;28;20453;-74
2023/01/11 02:01:45;;;;;;;1.13;1.10;;;7.10;1.00;;;;;;5110935;28;20454;-74
2023/01/11 02:03:47;;;;;;;1.30;1.20;;;7.10;99.90;;;;;;5095747;28;20451;-77
2023/01/11 02:06:16;;;;;;;1.27;1.20;;;7.10;99.90;;;;;;5112460;28;20452;-74
2023/01/11 02:08:49;;;;;;;1.37;1.20;;;7.10;99.90;;;;;;5113357;28;21255;-76
2023/01/11 02:11:30;;;;;;;1.00;1.00;;;7.20;99.90;;;;;;5113225;28;20965;-76
2023/01/11 02:14:02;;;;;;;1.50;1.40;;;7.20;1.00;;;;;;5099270;28;20545;-74
2023/01/11 02:16:32;;;;;;;1.00;1.00;;;7.30;99.90;;;;;;5094233;28;20475;-75
2023/01/11 02:19:00;;;;;;;1.63;1.20;;;7.30;99.90;;;;;;5092070;28;20467;-74
2023/01/11 02:21:40;;;;;;;1.20;1.20;;;7.30;26.50;;;;;;5114753;28;20458;-74
2023/01/11 02:24:32;;;;;;;1.63;1.10;;;7.40;99.90;;;;;;5114808;28;20559;-78
2023/01/11 02:27:18;;;;;;;1.20;1.10;;;7.40;3.80;;;;;;5113507;28;20482;-74
2023/01/11 02:29:58;;;;;;;1.13;1.10;;;7.40;1.00;;;;;;5113013;28;21487;-75
2023/01/11 02:32:34;;;;;;;1.23;1.13;;;7.30;99.90;;;;;;5117890;28;20454;-74
2023/01/11 02:35:12;;;;;;;1.10;1.10;;;7.40;1.00;;;;;;5114163;27;20819;-74
2023/01/11 02:37:48;;;;;;;1.13;1.03;;;7.40;1.00;;;;;;5116224;27;20473;-74
2023/01/11 02:40:25;;;;;;;1.80;1.13;;;7.50;99.90;;;;;;5109779;27;20469;-73
2023/01/11 02:45:51;;;;;;;1.73;1.13;;;7.50;1.00;;;;;;5111147;27;20456;-77
2023/01/11 02:48:26;;;;;;;0.93;0.93;;;7.50;99.90;;;;;;5113971;27;20504;-78
2023/01/11 02:51:02;;;;;;;3.90;1.10;;;7.50;1.00;;;;;;5114071;27;20491;-76
2023/01/11 02:53:36;;;;;;;1.20;1.20;;;7.40;99.90;;;;;;5119308;27;20482;-74
2023/01/11 02:56:09;;;;;;;1.10;1.10;;;7.40;1.00;;;;;;5108938;27;20459;-77
2023/01/11 02:58:40;;;;;;;1.10;1.10;;;7.50;99.90;;;;;;5109055;27;20862;-74
2023/01/11 03:01:10;;;;;;;1.10;1.10;;;7.50;1.00;;;;;;5115912;27;21120;-73
2023/01/11 03:03:38;;;;;;;1.23;1.23;;;7.50;99.90;;;;;;5113955;27;20454;-74
2023/01/11 03:06:13;;;;;;;1.00;1.00;;;7.50;99.90;;;;;;5097396;27;20458;-74
2023/01/11 03:09:13;;;;;;;1.20;1.20;;;7.60;1.00;;;;;;5114643;27;20464;-74
2023/01/11 03:14:50;;;;;;;1.20;1.20;;;7.60;1.00;;;;;;5112167;27;20448;-75
2023/01/11 03:17:33;;;;;;;1.10;1.10;;;7.50;92.50;;;;;;5111623;27;20510;-74
2023/01/11 03:20:09;;;;;;;1.40;1.20;;;7.50;99.90;;;;;;5117254;27;21008;-74
2023/01/11 03:22:46;;;;;;;1.50;1.40;;;7.50;99.90;;;;;;5116739;27;20457;-74
2023/01/11 03:25:19;;;;;;;1.30;1.30;;;7.50;1.00;;;;;;5095821;27;20983;-79
2023/01/11 03:27:52;;;;;;;1.33;1.33;;;7.50;1.00;;;;;;5112534;27;20573;-74
2023/01/11 03:30:28;;;;;;;1.33;1.23;;;7.60;76.50;;;;;;5114082;27;20453;-74
2023/01/11 03:33:05;;;;;;;1.40;1.30;;;7.60;1.00;;;;;;5114473;27;20561;-74
2023/01/11 03:35:40;;;;;;;1.10;1.10;;;7.60;67.00;;;;;;5110412;27;20540;-74
2023/01/11 03:38:16;;;;;;;1.10;1.10;;;7.50;1.00;;;;;;5113382;27;21203;-76
2023/01/11 03:40:48;;;;;;;1.20;1.20;;;7.60;98.80;;;;;;5118697;27;20538;-74
2023/01/11 03:43:21;;;;;;;1.30;1.20;;;7.60;99.90;;;;;;5114936;27;20487;-76
2023/01/11 03:45:53;;;;;;;1.80;1.30;;;7.60;99.90;;;;;;5113334;27;20462;-75
2023/01/11 03:48:29;;;;;;;1.13;1.13;;;7.60;99.90;;;;;;5114732;27;20470;-74
2023/01/11 03:50:59;;;;;;;1.30;1.20;;;7.60;99.90;;;;;;5119138;27;20449;-80
2023/01/11 03:53:31;;;;;;;1.50;1.40;;;7.60;99.90;;;;;;5115236;27;20489;-78
2023/01/11 03:56:05;;;;;;;2.63;1.30;;;7.60;99.90;;;;;;5117335;27;20471;-76
2023/01/11 03:58:33;;;;;;;1.10;1.10;;;7.60;99.90;;;;;;5119897;27;20554;-75
2023/01/11 04:01:03;;;;;;;1.30;1.30;;;7.60;99.90;;;;;;5111116;27;20572;-81
2023/01/11 04:03:33;;;;;;;1.63;1.20;;;7.70;99.90;;;;;;5115541;27;21198;-76
2023/01/11 04:06:02;;;;;;;1.20;1.20;;;7.70;99.90;;;;;;5117001;27;20458;-76
2023/01/11 04:08:31;;;;;;;1.40;1.30;;;7.60;99.90;;;;;;5114580;27;20464;-76
2023/01/11 04:10:59;;;;;;;1.23;1.20;;;7.60;99.90;;;;;;5116729;27;21062;-76
2023/01/11 04:13:28;;;;;;;1.40;1.30;;;7.60;1.00;;;;;;5096632;27;20470;-77
2023/01/11 04:15:56;;;;;;;1.57;1.20;;;7.60;99.90;;;;;;5097500;27;20646;-78
2023/01/11 04:18:24;;;;;;;1.30;1.20;;;7.60;1.00;;;;;;5096256;27;20469;-77
2023/01/11 04:20:54;;;;;;;1.30;1.20;;;7.70;99.90;;;;;;5113139;27;20983;-78
2023/01/11 04:23:25;;;;;;;1.33;1.27;;;7.60;1.00;;;;;;5110489;27;20466;-75
2023/01/11 04:25:53;;;;;;;1.30;1.30;;;7.70;1.00;;;;;;5113461;27;20836;-74
2023/01/11 04:28:21;;;;;;;1.30;1.30;;;7.60;1.00;;;;;;5120253;27;20470;-74
2023/01/11 04:30:49;;;;;;;1.20;1.20;;;7.70;1.00;;;;;;5112826;27;21061;-76
2023/01/11 04:33:18;;;;;;;1.27;1.27;;;7.80;1.00;;;;;;5119220;27;20494;-75
2023/01/11 04:35:46;;;;;;;1.40;1.30;;;7.70;1.00;;;;;;5108452;27;20489;-74
2023/01/11 04:38:17;;;;;;;1.97;1.30;;;7.70;1.00;;;;;;5109960;27;20487;-75
2023/01/11 04:40:47;;;;;;;1.50;1.40;;;7.70;1.00;;;;;;5117299;27;20482;-74
2023/01/11 04:43:14;;;;;;;1.40;1.40;;;7.80;1.00;;;;;;5115239;27;20547;-75
2023/01/11 04:45:42;;;;;;;1.40;1.40;;;7.80;1.00;;;;;;5110965;27;20462;-74
2023/01/11 04:48:10;;;;;;;1.30;1.30;;;7.80;1.00;;;;;;5115758;27;20478;-77
2023/01/11 04:50:39;;;;;;;1.43;1.43;;;7.90;1.00;;;;;;5116254;27;20456;-74
2023/01/11 04:53:07;;;;;;;1.40;1.40;;;7.80;1.00;;;;;;5110701;27;20503;-75
2023/01/11 04:55:36;;;;;;;1.40;1.40;;;7.90;1.00;;;;;;5111136;27;20495;-74
2023/01/11 04:58:04;;;;;;;1.30;1.30;;;7.90;1.00;;;;;;5105621;27;20491;-74
2023/01/11 05:00:33;;;;;;;2.00;1.40;;;7.80;1.00;;;;;;5098466;27;20528;-75
2023/01/11 05:03:01;;;;;;;1.87;1.77;;;7.80;1.00;;;;;;5098504;27;20496;-74
2023/01/11 05:05:29;;;;;;;1.90;1.90;;;7.80;1.00;;;;;;5104066;27;20449;-74
2023/01/11 05:07:57;;;;;;;1.50;1.50;;;7.90;1.00;;;;;;5111508;27;20506;-74
2023/01/11 05:10:25;;;;;;;1.60;1.60;;;7.90;1.00;;;;;;5114618;27;20459;-78
2023/01/11 05:12:54;;;;;;;1.50;1.50;;;7.80;1.00;;;;;;5115974;27;20459;-73
2023/01/11 05:15:23;;;;;;;1.60;1.60;;;7.90;1.00;;;;;;5099537;27;20460;-77
2023/01/11 05:17:51;;;;;;;1.67;1.60;;;7.90;1.00;;;;;;5116560;27;21056;-77
2023/01/11 05:20:21;;;;;;;1.50;1.50;;;7.80;1.00;;;;;;5107667;27;20536;-74
2023/01/11 05:22:49;;;;;;;1.43;1.33;;;7.90;1.00;;;;;;5112979;27;20466;-76
2023/01/11 05:25:17;;;;;;;1.30;1.30;;;7.90;1.00;;;;;;5096787;28;20459;-78
2023/01/11 05:27:46;;;;;;;1.60;1.50;;;7.90;1.00;;;;;;5113465;27;20501;-74
2023/01/11 05:30:16;;;;;;;1.57;1.47;;;7.90;1.00;;;;;;5111156;27;20965;-76
2023/01/11 05:32:44;;;;;;;1.60;1.60;;;7.90;1.00;;;;;;5111703;27;20828;-76
2023/01/11 05:35:12;;;;;;;1.80;1.70;;;8.00;1.00;;;;;;5112331;27;20451;-76
2023/01/11 05:37:40;;;;;;;1.80;1.70;;;8.00;1.00;;;;;;5108400;27;20468;-76
2023/01/11 05:40:10;;;;;;;2.60;1.80;;;8.10;1.00;;;;;;5097327;27;20512;-77
2023/01/11 05:42:38;;;;;;;1.40;1.40;;;8.10;1.00;;;;;;5104623;28;20448;-76
2023/01/11 05:47:55;;;;;;;1.50;1.50;;;8.10;1.00;;;;;;5107199;28;20472;-80
2023/01/11 05:50:23;;;;;;;1.70;1.60;;;8.10;1.00;;;;;;5103587;28;20447;-76
2023/01/11 05:52:51;;;;;;;1.60;1.50;;;8.10;1.00;;;;;;5110073;28;20939;-74
2023/01/11 05:55:19;;;;;;;1.50;1.50;;;8.10;1.00;;;;;;5111000;28;20459;-75
2023/01/11 05:57:49;;;;;;;2.30;1.70;;;8.10;1.00;;;;;;5092768;28;20479;-79
2023/01/11 06:00:18;;;;;;;3.33;2.93;;;8.10;1.00;;;;;;5089404;28;20451;-78
2023/01/11 06:02:46;;;;;;;1.57;1.57;;;8.20;1.00;;;;;;5111659;28;22593;-75
2023/01/11 06:05:16;;;;;;;1.50;1.50;;;8.10;1.00;;;;;;5105590;28;20459;-76
2023/01/11 06:07:45;;;;;;;1.60;1.60;;;8.10;1.00;;;;;;5120498;28;20472;-81
2023/01/11 06:10:13;;;;;;;1.77;1.67;;;8.10;1.00;;;;;;5115537;27;20451;-75
2023/01/11 06:12:41;;;;;;;1.60;1.60;;;8.10;1.00;;;;;;5117501;27;20960;-79
2023/01/11 06:15:10;;;;;;;1.80;1.70;;;8.20;1.00;;;;;;5108542;27;20474;-79
2023/01/11 06:17:38;;;;;;;2.10;2.10;;;8.10;1.00;;;;;;5117409;27;20545;-74
2023/01/11 06:20:08;;;;;;;1.80;1.70;;;8.10;1.00;;;;;;5115806;27;20454;-74
2023/01/11 06:22:37;;;;;;;1.80;1.70;;;8.10;1.00;;;;;;5104869;27;20243;-76
2023/01/11 06:25:06;;;;;;;1.40;1.40;;;8.20;1.00;;;;;;5106208;27;20446;-76
2023/01/11 06:27:34;;;;;;;1.70;1.60;;;8.20;1.00;;;;;;5104449;27;21005;-76
2023/01/11 06:30:02;;;;;;;1.87;1.77;;;8.10;1.00;;;;;;5109538;27;20497;-74
2023/01/11 06:32:30;;;;;;;1.60;1.60;;;8.20;1.00;;;;;;5104153;27;20543;-76
2023/01/11 06:34:59;;;;;;;1.60;1.50;;;8.30;1.00;;;;;;5117315;27;20849;-77
2023/01/11 06:37:27;;;;;;;1.80;1.70;;;8.20;1.00;;;;;;5092964;27;20524;-75
2023/01/11 06:39:56;;;;;;;1.60;1.60;;;8.20;1.00;;;;;;5114104;27;20246;-75
2023/01/11 06:42:24;;;;;;;1.60;1.60;;;8.20;1.00;;;;;;5115237;27;20467;-77
2023/01/11 06:44:53;;;;;;;2.00;1.90;;;8.20;1.00;;;;;;5114378;27;20976;-79
2023/01/11 06:47:21;;;;;;;2.10;1.63;;;8.20;1.00;;;;;;5110807;27;20487;-75
2023/01/11 06:49:49;;;;;;;1.60;1.60;;;8.20;1.00;;;;;;5114550;27;20501;-81
2023/01/11 06:52:18;;;;;;;1.60;1.60;;;8.20;1.00;;;;;;5099011;27;20990;-76
2023/01/11 06:54:46;;;;;;;1.60;1.60;;;8.20;1.00;;;;;;5097212;27;20494;-75
2023/01/11 06:57:16;;;;;;;1.90;1.87;;;8.20;1.00;;;;;;5119811;27;20515;-77
2023/01/11 06:59:44;;;;;;;1.57;1.50;;;8.20;1.00;;;;;;5105548;27;20542;-79
2023/01/11 07:02:12;;;;;;;1.40;1.40;;;8.20;1.00;;;;;;5084693;28;20570;-74
2023/01/11 07:04:41;;;;;;;1.93;1.83;;;8.30;1.00;;;;;;5105415;27;20461;-73
2023/01/11 07:07:09;;;;;;;1.83;1.47;;;8.30;1.00;;;;;;5106976;27;21014;-78
2023/01/11 07:09:37;;;;;;;1.70;1.50;;;8.30;1.00;;;;;;5109967;27;20946;-75
2023/01/11 07:12:06;;;;;;;1.87;1.77;;;8.30;1.00;;;;;;5109328;27;20510;-76
2023/01/11 07:14:35;;;;;;;1.70;1.60;;;8.20;1.00;;;;;;5108920;27;20456;-76
2023/01/11 07:17:03;;;;;;;1.60;1.50;;;8.30;1.00;;;;;;5103746;27;20469;-73
2023/01/11 07:19:32;;;;;;;1.97;1.87;;;8.30;1.00;;;;;;5112493;27;20455;-74
2023/01/11 07:22:00;;;;;;;1.73;1.63;;;8.30;1.00;;;;;;5110124;27;20998;-76
2023/01/11 07:24:28;;;;;;;1.67;1.67;;;8.30;1.00;;;;;;5092093;27;20953;-74
2023/01/11 07:26:58;;;;;;;1.60;1.60;;;8.30;1.00;;;;;;5112974;27;20479;-74
2023/01/11 07:29:26;;;;;;;1.80;1.70;;;8.30;1.00;;;;;;5108537;27;20464;-75
2023/01/11 07:31:56;;;;;;;1.97;1.87;;;8.30;1.00;;;;;;5114382;27;20454;-73
2023/01/11 07:34:24;;;;;;;1.70;1.60;;;8.30;1.00;;;;;;5114678;27;20597;-72
2023/01/11 07:36:52;;;;;;;2.50;1.90;;;8.30;1.00;;;;;;5116207;27;20471;-72
2023/01/11 07:39:21;;;;;;;1.67;1.67;;;8.40;1.00;;;;;;5115859;27;20460;-73
2023/01/11 07:44:47;;;;;;;1.90;1.80;;;8.40;1.00;;;;;;5116030;27;20451;-77
2023/01/11 07:47:17;;;;;;;1.70;1.60;;;8.40;1.00;;;;;;5114692;27;20477;-73
2023/01/11 07:49:45;;;;;;;1.90;1.80;;;8.40;1.00;;;;;;5094497;27;20456;-79
2023/01/11 07:52:13;;;;;;;1.50;1.50;;;8.50;1.00;;;;;;5107106;27;20451;-76
2023/01/11 07:54:41;;;;;;;1.80;1.73;;;8.50;1.00;;;;;;5107898;27;20459;-74
2023/01/11 07:57:10;;;;;;;2.30;2.20;;;8.50;1.00;;;;;;5117112;27;20839;-75
2023/01/11 07:59:38;;;;;;;1.90;1.90;;;8.60;1.00;;;;;;5120602;27;20445;-77
2023/01/11 08:02:06;;;;;;;1.80;1.80;;;8.60;1.00;;;;;;5107331;27;20487;-74
2023/01/11 08:04:36;;;;;;;2.00;1.90;;;8.70;1.00;;;;;;5116330;27;20464;-79
2023/01/11 08:07:04;;;;;;;1.67;1.67;;;8.60;1.00;;;;;;5122025;27;20471;-74
2023/01/11 08:09:32;;;;;;;1.70;1.70;;;8.70;1.00;;;;;;5117769;27;20452;-74
2023/01/11 08:14:46;;;;;;;1.63;1.60;;;8.70;1.00;;;;;;5094296;27;20463;-75
2023/01/11 08:17:15;;;;;;;1.80;1.80;;;8.70;1.00;;;;;;5111570;27;20553;-77
2023/01/11 08:19:45;;;;;;;1.80;1.80;;;8.70;1.00;;;;;;5105803;27;20983;-74
2023/01/11 08:22:13;;;;;;;2.07;1.97;;;8.70;1.00;;;;;;5117761;27;20918;-73
2023/01/11 08:24:41;;;;;;;1.70;1.70;;;8.80;1.00;;;;;;5115969;27;20483;-73
2023/01/11 08:27:10;;;;;;;1.67;1.57;;;8.80;99.90;;;;;;5120481;27;20476;-74
2023/01/11 08:29:42;;;;;;;1.50;1.50;;;8.80;99.90;;;;;;5112653;27;20464;-74
2023/01/11 08:32:11;;;;;;;2.13;2.03;;;8.80;1.00;;;;;;5104831;27;20441;-74
2023/01/11 08:34:39;;;;;;;1.80;1.70;;;8.90;99.90;;;;;;5108339;27;20945;-75
2023/01/11 08:37:09;;;;;;;1.80;1.80;;;8.90;99.90;;;;;;5111271;27;20501;-74
2023/01/11 08:39:37;;;;;;;1.60;1.60;;;8.90;99.90;;;;;;5115294;27;20498;-74
2023/01/11 08:42:05;;;;;;;1.70;1.60;;;8.90;99.90;;;;;;5108258;27;20531;-79
2023/01/11 08:44:33;;;;;;;1.80;1.70;;;9.00;99.90;;;;;;5113529;27;20970;-73
2023/01/11 08:47:02;;;;;;;2.80;1.50;;;9.00;1.00;;;;;;5111982;27;20465;-75
2023/01/11 08:49:31;;;;;;;1.77;1.67;;;9.00;99.90;;;;;;5103957;27;20484;-75
2023/01/11 08:51:59;;;;;;;1.83;1.80;;;9.00;1.00;;;;;;5117521;27;20506;-74
2023/01/11 08:54:28;;;;;;;1.87;1.77;;;9.00;1.00;;;;;;5116432;27;20459;-74
2023/01/11 08:56:57;;;;;;;1.60;1.60;;;9.00;1.00;;;;;;5092182;28;20512;-78
2023/01/11 08:59:25;;;;;;;1.80;1.77;;;9.10;99.90;;;;;;5106722;27;20454;-73
2023/01/11 09:01:53;;;;;;;2.00;1.90;;;9.10;99.90;;;;;;5111015;27;20479;-74
2023/01/11 09:04:21;;;;;;;2.00;1.93;;;9.10;99.90;;;;;;5102700;27;20456;-76
2023/01/11 09:06:53;;;;;;;1.70;1.60;;;9.20;1.00;;;;;;5105014;27;20561;-74
2023/01/11 09:09:21;;;;;;;1.80;1.70;;;9.10;99.90;;;;;;5105608;27;20454;-73
2023/01/11 09:11:54;;;;;;;1.90;1.80;;;9.10;99.90;;;;;;5106177;27;20451;-74
2023/01/11 09:14:22;;;;;;;1.53;1.53;;;9.10;99.90;;;;;;5104312;27;20437;-79
2023/01/11 09:16:51;;;;;;;1.60;1.60;;;9.10;99.90;;;;;;5107185;27;20512;-77
2023/01/11 09:19:20;;;;;;;1.70;1.70;;;9.10;99.90;;;;;;5100448;27;20461;-74
2023/01/11 09:21:49;;;;;;;2.00;1.90;;;9.00;99.90;;;;;;5104929;28;22724;-79
2023/01/11 09:24:18;;;;;;;1.70;1.70;;;9.10;99.90;;;;;;5105338;27;21192;-74
2023/01/11 09:26:46;;;;;;;1.60;1.60;;;9.10;99.90;;;;;;5096873;28;21317;-77
2023/01/11 09:29:16;;;;;;;1.50;1.50;;;9.10;99.90;;;;;;5104327;27;20819;-79
2023/01/11 09:31:44;;;;;;;1.70;1.60;;;9.20;99.90;;;;;;5090651;28;20457;-78
2023/01/11 09:34:12;;;;;;;1.63;1.60;;;9.20;2.10;;;;;;5102641;27;20513;-76
2023/01/11 09:36:41;;;;;;;1.53;1.50;;;9.20;99.90;;;;;;5104879;27;21020;-76
2023/01/11 09:39:14;;;;;;;1.60;1.60;;;9.30;89.70;;;;;;5105877;27;20460;-74
2023/01/11 09:42:07;;;;;;;1.50;1.50;;;9.20;72.50;;;;;;5105592;27;20457;-78
2023/01/11 09:44:48;;;;;;;1.90;1.90;;;9.20;99.90;;;;;;5088517;28;20876;-74
2023/01/11 09:47:24;;;;;;;1.50;1.50;;;9.30;1.00;;;;;;5107245;27;21480;-74
2023/01/11 09:49:57;;;;;;;1.80;1.50;;;9.30;68.30;;;;;;5106328;28;20449;-79
2023/01/11 09:52:31;;;;;;;1.90;1.80;;;9.30;92.50;;;;;;5104416;28;20453;-78
2023/01/11 09:55:01;;;;;;;1.90;1.80;;;9.30;99.90;;;;;;5092254;28;20868;-76
2023/01/11 09:57:42;;;;;;;1.70;1.60;;;9.30;99.90;;;;;;5112303;28;20461;-74
2023/01/11 10:00:20;;;;;;;1.60;1.60;;;9.30;99.90;;;;;;5117334;28;20432;-74
2023/01/11 10:03:09;;;;;;;1.80;1.80;;;9.40;99.90;;;;;;5117247;28;20480;-74
2023/01/11 10:05:50;;;;;;;2.17;2.07;;;9.40;99.90;;;;;;5111162;28;20548;-73
2023/01/11 10:08:34;;;;;;;1.77;1.67;;;9.40;99.90;;;;;;5114677;28;20558;-76
2023/01/11 10:11:32;;;;;;;1.57;1.50;;;9.40;99.90;;;;;;5114725;28;20495;-74
2023/01/11 10:14:28;;;;;;;1.70;1.70;;;9.30;99.90;;;;;;5116137;28;21050;-76
2023/01/11 10:17:29;;;;;;;1.90;1.90;;;9.40;99.90;;;;;;5116464;28;20564;-75
2023/01/11 10:20:26;;;;;;;1.90;1.80;;;9.50;99.90;;;;;;5106028;28;20464;-78
2023/01/11 10:23:03;;;;;;;1.80;1.70;;;9.50;68.80;;;;;;5107458;28;20836;-74
2023/01/11 10:25:40;;;;;;;2.03;1.80;;;9.50;99.90;;;;;;5106874;28;20456;-77
2023/01/11 10:28:21;;;;;;;2.00;1.90;;;9.50;99.90;;;;;;5112230;28;20476;-73
2023/01/11 10:31:06;;;;;;;1.87;1.87;;;9.50;99.90;;;;;;5114175;28;20495;-74
2023/01/11 10:34:04;;;;;;;1.70;1.70;;;9.50;99.90;;;;;;5115821;28;20452;-74
2023/01/11 10:37:03;;;;;;;1.80;1.80;;;9.50;99.90;;;;;;5118894;28;20483;-75
2023/01/11 10:39:54;;;;;;;1.70;1.70;;;9.50;99.90;;;;;;5114175;28;20453;-75
2023/01/11 10:42:24;;;;;;;1.77;1.67;;;9.50;99.90;;;;;;5115016;28;20530;-74
2023/01/11 10:45:00;;;;;;;2.00;1.90;;;9.50;99.90;;;;;;5104029;28;20474;-74
2023/01/11 10:47:38;;;;;;;2.30;1.80;;;9.60;99.90;;;;;;5103759;28;20530;-76
2023/01/11 10:50:19;;;;;;;2.17;2.07;;;9.60;99.90;;;;;;5106991;28;20442;-74
2023/01/11 10:52:56;;;;;;;1.90;1.80;;;9.60;99.90;;;;;;5106613;28;20501;-73
2023/01/11 10:55:32;;;;;;;1.90;1.90;;;9.60;99.90;;;;;;5102094;28;20493;-76
2023/01/11 10:58:15;;;;;;;2.00;1.90;;;9.60;99.90;;;;;;5113269;27;20537;-75
2023/01/11 11:00:57;;;;;;;2.00;1.90;;;9.50;99.90;;;;;;5106318;27;20951;-76
2023/01/11 11:04:01;;;;;;;2.40;2.20;;;9.60;99.90;;;;;;5101842;27;20504;-73
2023/01/11 11:06:41;;;;;;;2.53;2.43;;;9.60;1.00;;;;;;5105466;27;20478;-75
2023/01/11 11:09:18;;;;;;;2.20;2.10;;;9.60;1.00;;;;;;5108366;27;20768;-75
2023/01/11 11:11:52;;;;;;;2.60;2.50;;;9.70;1.00;;;;;;5106359;27;20448;-77
2023/01/11 11:14:27;;;;;;;2.37;2.27;;;9.70;1.00;;;;;;5106123;27;20460;-74
2023/01/11 11:17:06;;;;;;;2.50;2.40;;;9.70;1.00;;;;;;5108570;27;20569;-75
2023/01/11 11:19:34;;;;;;;2.73;2.63;;;9.70;1.00;;;;;;5112557;27;20453;-77
2023/01/11 11:22:03;;;;;;;3.03;2.93;;;9.80;1.00;;;;;;5111974;27;20503;-74
2023/01/11 11:24:36;;;;;;;5.13;3.07;;;9.80;1.00;;;;;;5107684;27;20480;-78
2023/01/11 11:27:14;;;;;;;3.33;3.13;;;9.80;1.00;;;;;;5107575;27;20464;-74
2023/01/11 11:29:48;;;;;;;3.00;2.90;;;9.70;1.00;;;;;;5105409;27;20452;-75
2023/01/11 11:32:23;;;;;;;3.27;3.17;;;9.80;1.00;;;;;;5106649;27;20457;-75
2023/01/11 11:34:51;;;;;;;3.27;3.17;;;9.90;1.00;;;;;;5104233;27;20448;-74
2023/01/11 11:37:27;;;;;;;3.40;3.30;;;9.90;1.00;;;;;;5106537;27;20469;-74
2023/01/11 11:39:56;;;;;;;3.60;3.50;;;9.80;1.00;;;;;;5111269;27;20555;-74
2023/01/11 11:42:25;;;;;;;4.13;3.83;;;9.80;1.00;;;;;;5091400;27;20469;-77
2023/01/11 11:45:16;;;;;;;3.30;3.20;;;9.80;1.00;;;;;;5108462;27;20485;-74
2023/01/11 11:48:00;;;;;;;4.07;3.97;;;9.70;1.00;;;;;;5108728;27;20845;-76
2023/01/11 11:50:33;;;;;;;3.70;3.60;;;9.80;1.00;;;;;;5112820;27;20456;-75
2023/01/11 11:53:26;;;;;;;4.17;4.07;;;9.80;1.00;;;;;;5111040;27;20445;-74
2023/01/11 11:55:55;;;;;;;4.40;4.30;;;9.70;11.30;;;;;;5110413;27;20449;-76
2023/01/11 11:58:25;;;;;;;4.77;4.67;;;9.70;15.90;;;;;;5120030;27;20461;-75
2023/01/11 12:00:53;;;;;;;4.80;4.60;;;9.80;20.40;;;;;;5118390;27;20452;-75
2023/01/11 12:03:24;;;;;;;4.37;4.27;;;9.80;27.50;;;;;;5118008;27;20439;-76
2023/01/11 12:05:59;;;;;;;4.67;4.57;;;9.80;27.30;;;;;;5112146;27;20449;-77
2023/01/11 12:08:30;;;;;;;4.60;4.50;;;9.80;28.40;;;;;;5103911;27;20482;-76
2023/01/11 12:11:01;;;;;;;4.80;4.70;;;9.80;33.50;;;;;;5106762;27;20493;-75
2023/01/11 12:13:32;;;;;;;4.70;4.60;;;9.90;31.40;;;;;;5104468;27;20448;-74
2023/01/11 12:16:03;;;;;;;5.27;5.17;;;9.90;27.50;;;;;;5104677;27;20968;-77
2023/01/11 12:18:40;;;;;;;5.33;5.03;;;9.90;28.20;;;;;;5104369;27;20995;-74
2023/01/11 12:21:20;;;;;;;5.40;5.30;;;9.80;31.60;;;;;;5111517;27;20453;-74
2023/01/11 12:24:09;;;;;;;5.03;4.93;;;9.90;44.60;;;;;;5108359;27;20456;-74
2023/01/11 12:26:47;;;;;;;4.67;4.50;;;9.90;48.50;;;;;;5106484;27;21016;-76
2023/01/11 12:29:54;;;;;;;5.13;5.03;;;9.90;50.30;;;;;;5103085;27;20453;-81
2023/01/11 12:32:49;;;;;;;5.10;5.00;;;9.90;42.00;;;;;;5091750;27;20952;-76
2023/01/11 12:35:29;;;;;;;6.27;6.07;;;9.90;56.60;;;;;;5103021;27;20440;-77
2023/01/11 12:38:25;;;;;;;5.23;5.13;;;10.00;60.00;;;;;;5109199;27;20612;-74
2023/01/11 12:41:09;;;;;;;5.17;5.07;;;10.00;73.20;;;;;;5100904;27;20456;-76
2023/01/11 12:43:50;;;;;;;5.57;5.40;;;10.00;74.50;;;;;;5103984;27;20441;-77
2023/01/11 12:46:29;;;;;;;7.67;7.37;;;10.00;87.20;;;;;;5084298;27;20478;-75
2023/01/11 12:49:15;;;;;;;6.17;5.87;;;10.00;80.40;;;;;;5102324;27;20498;-76
2023/01/11 12:52:00;;;;;;;6.30;6.10;;;10.00;90.10;;;;;;5105013;27;20436;-74
2023/01/11 12:54:50;;;;;;;6.47;6.30;;;10.00;91.10;;;;;;5105036;27;20433;-74
2023/01/11 12:57:27;;;;;;;6.70;6.60;;;10.00;91.00;;;;;;5106642;27;20480;-76
2023/01/11 13:00:10;;;;;;;6.73;6.63;;;10.00;95.20;;;;;;5077298;27;20468;-74
2023/01/11 13:03:00;;;;;;;6.70;6.53;;;10.00;89.00;;;;;;5096902;27;21001;-76
2023/01/11 13:05:38;;;;;;;7.00;6.90;;;10.00;97.30;;;;;;5098848;27;20546;-74
2023/01/11 13:08:16;;;;;;;8.00;7.73;;;10.00;92.90;;;;;;5108442;27;20468;-77
2023/01/11 13:10:59;;;;;;;7.43;7.23;;;10.00;99.90;;;;;;5103697;27;20558;-77
2023/01/11 13:13:38;;;;;;;7.87;7.57;;;10.00;99.90;;;;;;5084990;28;20543;-75
2023/01/11 13:16:12;;;;;;;7.60;7.40;;;10.10;99.90;;;;;;5104498;27;20524;-74
2023/01/11 13:18:47;;;;;;;7.80;7.40;;;10.10;99.90;;;;;;5101614;27;20457;-76
2023/01/11 13:21:26;;;;;;;7.40;7.00;;;10.10;99.90;;;;;;5102380;27;20529;-76
2023/01/11 13:23:58;;;;;;;7.13;7.03;;;10.10;99.90;;;;;;5104982;27;20437;-76
2023/01/11 13:26:31;;;;;;;7.30;7.10;;;10.10;99.90;;;;;;5107426;27;20486;-75
2023/01/11 13:29:05;;;;;;;7.63;7.27;;;10.00;99.90;;;;;;5107854;27;20536;-75
2023/01/11 13:31:34;;;;;;;7.30;7.20;;;10.00;99.90;;;;;;5106045;27;20449;-74
2023/01/11 13:34:06;;;;;;;7.17;7.00;;;10.10;99.90;;;;;;5099334;27;20473;-79
2023/01/11 13:36:40;;;;;;;6.90;6.70;;;10.10;99.90;;;;;;5102833;27;20465;-77
2023/01/11 13:39:16;;;;;;;6.63;6.53;;;10.10;99.90;;;;;;5111205;27;20522;-76
2023/01/11 13:41:48;;;;;;;6.90;6.70;;;10.10;99.90;;;;;;5111521;27;20547;-80
2023/01/11 13:44:22;;;;;;;6.67;6.47;;;10.10;99.90;;;;;;5103067;27;20448;-77
2023/01/11 13:47:00;;;;;;;6.97;6.87;;;10.10;99.90;;;;;;5109149;28;21093;-78
2023/01/11 13:49:41;;;;;;;6.73;6.43;;;10.10;99.90;;;;;;5112172;27;20488;-76
2023/01/11 13:52:13;;;;;;;7.43;7.13;;;10.20;99.90;;;;;;5089191;28;20467;-76